createdAt,value
2023-04-02T00:01:19.456Z,2.70
2023-04-02T00:06:40.659Z,2.83
2023-04-02T00:11:54.992Z,3.07
2023-04-02T00:17:03.381Z,3.15
2023-04-02T00:22:12.284Z,3.75
2023-04-02T00:27:20.846Z,3.03
2023-04-02T00:32:29.555Z,2.85
2023-04-02T00:37:39.297Z,3.57
2023-04-02T00:42:47.988Z,2.90
2023-04-02T00:47:54.423Z,2.90
2023-04-02T00:53:02.181Z,3.17
2023-04-02T00:58:20.233Z,2.75
2023-04-02T01:03:38.129Z,3.50
2023-04-02T01:08:56.642Z,3.88
2023-04-02T01:14:15.332Z,4.15
2023-04-02T01:19:47.022Z,5.17
2023-04-02T01:24:53.107Z,4.35
2023-04-02T01:30:03.645Z,3.87
2023-04-02T01:35:12.335Z,4.15
2023-04-02T01:40:40.220Z,5.05
2023-04-02T01:45:48.631Z,5.53
2023-04-02T01:50:57.099Z,4.68
2023-04-02T01:56:07.599Z,5.93
2023-04-02T02:01:19.340Z,9.27
2023-04-02T02:06:28.040Z,9.05
2023-04-02T02:11:36.624Z,8.13
2023-04-02T02:16:46.481Z,7.95
2023-04-02T02:21:54.704Z,7.80
2023-04-02T02:27:17.057Z,6.20
2023-04-02T02:32:31.073Z,4.97
2023-04-02T02:37:42.521Z,4.67
2023-04-02T02:42:52.866Z,5.20
2023-04-02T02:48:02.618Z,5.13
2023-04-02T02:53:19.351Z,5.65
2023-04-02T02:58:30.098Z,8.38
2023-04-02T03:03:57.351Z,6.10
2023-04-02T03:09:09.821Z,5.72
2023-04-02T03:14:25.242Z,4.67
2023-04-02T03:19:41.327Z,4.07
2023-04-02T03:24:54.853Z,4.07
2023-04-02T03:30:10.871Z,5.07
2023-04-02T03:35:25.148Z,5.32
2023-04-02T03:40:36.738Z,5.70
2023-04-02T03:45:46.837Z,6.85
2023-04-02T03:51:01.775Z,7.40
2023-04-02T03:56:08.919Z,7.77
2023-04-02T04:01:22.628Z,5.93
2023-04-02T04:06:33.457Z,6.10
2023-04-02T04:11:46.568Z,5.50
2023-04-02T04:16:56.255Z,5.80
2023-04-02T04:22:19.336Z,6.32
2023-04-02T04:27:36.307Z,8.93
2023-04-02T04:32:51.738Z,8.40
2023-04-02T04:38:07.862Z,5.13
2023-04-02T04:43:21.244Z,6.18
2023-04-02T04:48:30.329Z,7.33
2023-04-02T04:53:52.439Z,7.70
2023-04-02T04:59:06.008Z,8.73
2023-04-02T05:04:19.348Z,9.30
2023-04-02T05:09:33.905Z,8.88
2023-04-02T05:14:45.201Z,9.03
2023-04-02T05:19:56.845Z,10.73
2023-04-02T05:25:18.333Z,7.97
2023-04-02T05:30:42.533Z,10.82
2023-04-02T05:35:50.725Z,9.35
2023-04-02T05:41:04.087Z,9.48
2023-04-02T05:46:19.979Z,8.73
2023-04-02T05:51:39.745Z,12.27
2023-04-02T05:56:51.415Z,11.25
2023-04-02T06:02:03.380Z,11.98
2023-04-02T06:07:19.271Z,13.20
2023-04-02T06:12:38.340Z,13.50
2023-04-02T06:17:49.832Z,16.93
2023-04-02T06:22:59.704Z,13.55
2023-04-02T06:28:11.793Z,15.57
2023-04-02T06:33:26.731Z,14.87
2023-04-02T06:38:34.506Z,18.20
2023-04-02T06:43:48.362Z,16.63
2023-04-02T06:49:22.349Z,13.63
2023-04-02T06:54:30.022Z,14.52
2023-04-02T06:59:42.456Z,14.80
2023-04-02T07:04:53.103Z,14.82
2023-04-02T07:10:00.048Z,13.80
2023-04-02T07:15:09.783Z,11.70
2023-04-02T07:20:28.661Z,11.65
2023-04-02T07:25:36.663Z,12.18
2023-04-02T07:30:45.052Z,14.18
2023-04-02T07:35:50.963Z,10.57
2023-04-02T07:40:56.408Z,11.20
2023-04-02T07:46:04.523Z,10.88
2023-04-02T07:51:18.348Z,9.68
2023-04-02T07:56:24.457Z,10.60
2023-04-02T08:01:35.213Z,14.50
2023-04-02T08:06:40.739Z,13.50
2023-04-02T08:11:46.851Z,11.15
2023-04-02T08:16:57.100Z,14.80
2023-04-02T08:22:03.383Z,14.05
2023-04-02T08:27:09.202Z,9.93
2023-04-02T08:32:18.925Z,9.07
2023-04-02T08:37:24.360Z,10.30
2023-04-02T08:42:37.764Z,9.88
2023-04-02T08:47:47.410Z,7.43
2023-04-02T08:52:54.022Z,9.13
2023-04-02T08:58:08.782Z,8.65
2023-04-02T09:03:20.934Z,6.45
2023-04-02T09:08:28.553Z,6.67
2023-04-02T09:13:37.801Z,8.23
2023-04-02T09:18:47.368Z,6.33
2023-04-02T09:23:53.039Z,5.22
2023-04-02T09:29:05.194Z,4.57
2023-04-02T09:34:34.795Z,5.00
2023-04-02T09:39:41.292Z,6.80
2023-04-02T09:44:46.929Z,4.57
2023-04-02T09:49:55.024Z,4.75
2023-04-02T09:55:23.126Z,5.72
2023-04-02T10:00:32.759Z,5.67
2023-04-02T10:05:41.777Z,4.65
2023-04-02T10:10:51.410Z,3.43
2023-04-02T10:16:02.649Z,3.38
2023-04-02T10:21:13.045Z,3.72
2023-04-02T10:26:45.048Z,4.73
2023-04-02T10:31:57.760Z,6.38
2023-04-02T10:37:25.117Z,3.47
2023-04-02T10:42:36.944Z,7.03
2023-04-02T10:47:50.018Z,4.05
2023-04-02T10:53:03.655Z,5.73
2023-04-02T10:58:19.593Z,5.97
2023-04-02T11:03:34.733Z,3.03
2023-04-02T11:08:46.667Z,3.22
2023-04-02T11:13:58.210Z,2.85
2023-04-02T11:19:28.858Z,4.17
2023-04-02T11:24:45.327Z,5.28
2023-04-02T11:30:00.550Z,4.33
2023-04-02T11:35:30.883Z,3.13
2023-04-02T11:40:52.198Z,3.55
2023-04-02T11:46:28.747Z,2.47
2023-04-02T11:51:59.371Z,4.10
2023-04-02T11:57:31.024Z,3.50
2023-04-02T12:02:44.528Z,3.28
2023-04-02T12:08:08.107Z,5.25
2023-04-02T12:13:24.686Z,6.03
2023-04-02T12:18:30.230Z,4.45
2023-04-02T12:23:38.624Z,3.37
2023-04-02T12:28:46.592Z,5.75
2023-04-02T12:33:55.271Z,3.40
2023-04-02T12:39:01.853Z,4.50
2023-04-02T12:44:16.706Z,3.28
2023-04-02T12:49:33.418Z,4.03
2023-04-02T12:54:46.836Z,3.92
2023-04-02T12:59:57.751Z,2.38
2023-04-02T13:05:07.828Z,4.93
2023-04-02T13:10:28.215Z,3.53
2023-04-02T13:15:38.017Z,3.17
2023-04-02T13:20:44.812Z,1.88
2023-04-02T13:25:50.188Z,3.08
2023-04-02T13:30:59.480Z,2.80
2023-04-02T13:36:05.056Z,4.63
2023-04-02T13:41:21.025Z,1.83
2023-04-02T13:46:30.511Z,2.55
2023-04-02T13:51:39.864Z,3.88
2023-04-02T13:56:45.826Z,2.57
2023-04-02T14:01:56.221Z,2.60
2023-04-02T14:07:23.553Z,2.30
2023-04-02T14:12:38.642Z,2.90
2023-04-02T14:17:56.637Z,3.97
2023-04-02T14:23:23.308Z,2.97
2023-04-02T14:28:42.945Z,2.08
2023-04-02T14:34:00.309Z,2.97
2023-04-02T14:39:15.560Z,2.80
2023-04-02T14:44:25.127Z,6.75
2023-04-02T14:49:40.201Z,2.90
2023-04-02T14:54:53.500Z,3.60
2023-04-02T15:00:05.880Z,1.90
2023-04-02T15:05:20.491Z,2.10
2023-04-02T15:10:31.679Z,3.22
2023-04-02T15:15:45.800Z,3.17
2023-04-02T15:21:02.927Z,2.13
2023-04-02T15:26:21.890Z,4.90
2023-04-02T15:31:31.415Z,4.60
2023-04-02T15:37:01.255Z,2.53
2023-04-02T15:42:19.355Z,2.50
2023-04-02T15:47:36.700Z,4.43
2023-04-02T15:52:54.509Z,3.20
2023-04-02T15:58:23.385Z,3.15
2023-04-02T16:03:49.030Z,1.73
2023-04-02T16:09:09.972Z,2.87
2023-04-02T16:14:28.324Z,3.33
2023-04-02T16:19:39.409Z,3.97
2023-04-02T16:24:49.070Z,2.42
2023-04-02T16:30:15.517Z,2.78
2023-04-02T16:35:41.707Z,3.27
2023-04-02T16:41:08.480Z,3.25
2023-04-02T16:46:35.819Z,2.57
2023-04-02T16:51:51.775Z,2.05
2023-04-02T16:57:17.004Z,3.92
2023-04-02T17:03:08.380Z,3.53
2023-04-02T17:08:20.265Z,2.97
2023-04-02T17:13:41.813Z,2.90
2023-04-02T17:18:52.739Z,3.72
2023-04-02T17:24:01.309Z,2.75
2023-04-02T17:29:16.006Z,2.40
2023-04-02T17:34:24.447Z,3.05
2023-04-02T17:39:39.500Z,2.57
2023-04-02T17:45:05.215Z,4.10
2023-04-02T17:50:36.268Z,1.73
2023-04-02T17:55:52.184Z,2.60
2023-04-02T18:01:19.643Z,4.05
2023-04-02T18:06:31.144Z,2.87
2023-04-02T18:11:46.378Z,2.72
2023-04-02T18:17:00.068Z,1.95
2023-04-02T18:22:17.238Z,1.60
2023-04-02T18:27:40.141Z,2.58
2023-04-02T18:33:19.977Z,3.07
2023-04-02T18:38:34.815Z,3.33
2023-04-02T18:43:48.324Z,3.35
2023-04-02T18:49:00.700Z,3.57
2023-04-02T18:54:19.588Z,2.28
2023-04-02T18:59:43.024Z,4.40
2023-04-02T19:05:00.138Z,4.35
2023-04-02T19:10:11.942Z,3.58
2023-04-02T19:15:21.475Z,3.93
2023-04-02T19:20:35.892Z,4.18
2023-04-02T19:25:58.719Z,3.00
2023-04-02T19:31:20.267Z,2.88
2023-04-02T19:36:47.557Z,4.00
2023-04-02T19:42:02.971Z,4.17
2023-04-02T19:47:08.899Z,4.25
2023-04-02T19:52:21.329Z,3.37
2023-04-02T19:57:28.603Z,5.68
2023-04-02T20:02:34.926Z,2.40
2023-04-02T20:07:43.391Z,3.90
2023-04-02T20:12:50.761Z,4.57
2023-04-02T20:17:56.783Z,2.63
2023-04-02T20:23:05.805Z,2.55
2023-04-02T20:28:12.399Z,5.93
2023-04-02T20:33:19.969Z,3.20
2023-04-02T20:38:37.964Z,5.30
2023-04-02T20:43:43.966Z,2.60
2023-04-02T20:48:49.574Z,2.92
2023-04-02T20:53:59.452Z,1.92
2023-04-02T20:59:05.321Z,2.53
2023-04-02T21:04:11.054Z,3.13
2023-04-02T21:09:22.155Z,3.97
2023-04-02T21:14:27.766Z,3.40
2023-04-02T21:19:33.738Z,2.80
2023-04-02T21:24:42.345Z,4.13
2023-04-02T21:29:47.848Z,4.50
2023-04-02T21:34:57.471Z,2.93
2023-04-02T21:40:05.822Z,3.75
2023-04-02T21:45:11.990Z,4.30
2023-04-02T21:50:17.702Z,2.97
2023-04-02T21:55:26.033Z,3.00
2023-04-02T22:00:31.639Z,4.07
2023-04-02T22:05:39.284Z,3.28
2023-04-02T22:10:47.349Z,5.32
2023-04-02T22:15:52.917Z,4.60
2023-04-02T22:20:59.376Z,3.53
2023-04-02T22:26:09.828Z,3.33
2023-04-02T22:31:17.201Z,4.90
2023-04-02T22:36:24.634Z,3.70
2023-04-02T22:41:32.961Z,2.90
2023-04-02T22:46:38.624Z,4.20
2023-04-02T22:51:44.661Z,4.20
2023-04-02T22:56:53.640Z,4.05
2023-04-02T23:01:59.340Z,6.00
2023-04-02T23:07:05.148Z,4.80
2023-04-02T23:12:13.384Z,4.82
2023-04-02T23:17:19.129Z,3.60
2023-04-02T23:22:26.926Z,7.68
2023-04-02T23:27:35.552Z,5.88
2023-04-02T23:32:40.993Z,7.57
2023-04-02T23:37:46.487Z,10.55
2023-04-02T23:42:54.621Z,11.57
2023-04-02T23:48:00.298Z,9.70
2023-04-02T23:53:06.055Z,9.75
2023-04-02T23:58:14.274Z,12.53
